createdAt,value
2023-04-28T00:00:22.454Z,97856.38
2023-04-28T00:02:51.345Z,97857.88
2023-04-28T00:05:18.401Z,97914.47
2023-04-28T00:07:45.733Z,97909.38
2023-04-28T00:10:12.383Z,97871.41
2023-04-28T00:12:40.243Z,97874.19
2023-04-28T00:15:07.819Z,97915.25
2023-04-28T00:17:34.708Z,97907.03
2023-04-28T00:20:01.378Z,97894.66
2023-04-28T00:22:28.361Z,97855.41
2023-04-28T00:24:55.170Z,97865.41
2023-04-28T00:27:21.688Z,97877.44
2023-04-28T00:29:50.527Z,97852.09
2023-04-28T00:32:17.100Z,97836.09
2023-04-28T00:34:43.930Z,97893.13
2023-04-28T00:37:10.897Z,97861.03
2023-04-28T00:39:37.497Z,97891.72
2023-04-28T00:42:05.008Z,97819.88
2023-04-28T00:44:31.731Z,97867.38
2023-04-28T00:47:01.763Z,97879.31
2023-04-28T00:49:29.220Z,97871.09
2023-04-28T00:51:56.629Z,97779.66
2023-04-28T00:54:23.408Z,97835.63
2023-04-28T00:56:50.808Z,97834.22
2023-04-28T00:59:18.624Z,97713.06
2023-04-28T01:01:46.209Z,97796.47
2023-04-28T01:04:13.050Z,97800.53
2023-04-28T01:06:43.811Z,97831.78
2023-04-28T01:09:10.500Z,97655.28
2023-04-28T01:11:38.323Z,97864.25
2023-04-28T01:14:11.464Z,97867.84
2023-04-28T01:16:41.377Z,97854.28
2023-04-28T01:19:08.471Z,97820.69
2023-04-28T01:21:38.052Z,97851.28
2023-04-28T01:24:23.314Z,97784.06
2023-04-28T01:26:52.245Z,97820.91
2023-04-28T01:29:18.768Z,97814.09
2023-04-28T01:31:46.006Z,97841.06
2023-04-28T01:34:14.672Z,97865.88
2023-04-28T01:36:42.022Z,97793.94
2023-04-28T01:39:10.578Z,97861.13
2023-04-28T01:41:37.248Z,97866.22
2023-04-28T01:44:05.215Z,97858.94
2023-04-28T01:46:31.966Z,97842.00
2023-04-28T01:48:58.637Z,97853.13
2023-04-28T01:51:25.381Z,97852.19
2023-04-28T01:53:53.116Z,97850.34
2023-04-28T01:56:19.894Z,97801.09
2023-04-28T01:58:46.766Z,97837.59
2023-04-28T02:01:14.432Z,97834.38
2023-04-28T02:03:42.693Z,97822.19
2023-04-28T02:06:09.629Z,97828.69
2023-04-28T02:08:38.378Z,97762.53
2023-04-28T02:11:05.842Z,97860.88
2023-04-28T02:13:33.746Z,97842.84
2023-04-28T02:16:02.620Z,97812.19
2023-04-28T02:18:32.650Z,97825.09
2023-04-28T02:21:12.176Z,97853.34
2023-04-28T02:23:39.938Z,97858.47
2023-04-28T02:26:07.735Z,97772.03
2023-04-28T02:28:34.364Z,97819.31
2023-04-28T02:31:08.793Z,97857.06
2023-04-28T02:33:36.721Z,97838.19
2023-04-28T02:36:05.569Z,97838.06
2023-04-28T02:38:33.192Z,97798.56
2023-04-28T02:41:05.036Z,97841.06
2023-04-28T02:43:33.209Z,97832.41
2023-04-28T02:46:00.170Z,97764.72
2023-04-28T02:48:27.233Z,97824.06
2023-04-28T02:50:54.487Z,97763.22
2023-04-28T02:53:21.772Z,97823.94
2023-04-28T02:55:50.466Z,97810.50
2023-04-28T02:58:18.215Z,97777.47
2023-04-28T03:00:46.538Z,97795.66
2023-04-28T03:03:15.815Z,97808.53
2023-04-28T03:05:42.574Z,97783.84
2023-04-28T03:08:09.141Z,97746.31
2023-04-28T03:10:35.827Z,97797.38
2023-04-28T03:13:04.443Z,97803.41
2023-04-28T03:15:31.405Z,97798.19
2023-04-28T03:17:58.249Z,97749.78
2023-04-28T03:20:24.925Z,97744.81
2023-04-28T03:22:51.743Z,97760.00
2023-04-28T03:25:18.718Z,97769.25
2023-04-28T03:27:50.990Z,97812.56
2023-04-28T03:30:17.580Z,97807.94
2023-04-28T03:32:44.275Z,97771.91
2023-04-28T03:35:12.070Z,97796.69
2023-04-28T03:37:40.244Z,97764.97
2023-04-28T03:40:09.394Z,97780.25
2023-04-28T03:42:55.719Z,97731.50
2023-04-28T03:45:27.302Z,97716.69
2023-04-28T03:47:54.157Z,97765.97
2023-04-28T03:50:25.326Z,97711.00
2023-04-28T03:52:53.066Z,97778.63
2023-04-28T03:55:19.908Z,97739.34
2023-04-28T03:57:46.811Z,97774.31
2023-04-28T04:00:13.875Z,97755.56
2023-04-28T04:02:46.488Z,97771.97
2023-04-28T04:05:19.407Z,97750.94
2023-04-28T04:07:46.284Z,97723.25
2023-04-28T04:10:12.870Z,97733.44
2023-04-28T04:12:44.996Z,97703.78
2023-04-28T04:15:12.247Z,97682.84
2023-04-28T04:17:39.618Z,97744.78
2023-04-28T04:20:09.412Z,97755.31
2023-04-28T04:22:37.007Z,97763.88
2023-04-28T04:25:04.251Z,97753.72
2023-04-28T04:27:31.157Z,97731.00
2023-04-28T04:29:58.571Z,97687.00
2023-04-28T04:32:26.565Z,97709.78
2023-04-28T04:34:53.754Z,97710.97
2023-04-28T04:37:20.388Z,97697.88
2023-04-28T04:40:00.175Z,97646.03
2023-04-28T04:42:30.701Z,97727.38
2023-04-28T04:45:06.135Z,97736.75
2023-04-28T04:47:33.058Z,97706.66
2023-04-28T04:50:00.214Z,97716.28
2023-04-28T04:52:27.112Z,97662.81
2023-04-28T04:54:56.706Z,97664.53
2023-04-28T04:57:28.229Z,97752.19
2023-04-28T05:00:06.781Z,97746.50
2023-04-28T05:02:37.054Z,97712.34
2023-04-28T05:05:19.835Z,97748.09
2023-04-28T05:08:02.559Z,97747.06
2023-04-28T05:10:30.834Z,97739.88
2023-04-28T05:12:58.332Z,97711.88
2023-04-28T05:15:25.106Z,97728.44
2023-04-28T05:18:21.988Z,97739.91
2023-04-28T05:20:49.424Z,97713.75
2023-04-28T05:23:18.267Z,97594.19
2023-04-28T05:25:45.364Z,97688.88
2023-04-28T05:28:13.172Z,97702.41
2023-04-28T05:30:41.320Z,97721.97
2023-04-28T05:33:07.931Z,97717.88
2023-04-28T05:35:34.787Z,97708.28
2023-04-28T05:38:03.436Z,97713.13
2023-04-28T05:40:30.364Z,97672.63
2023-04-28T05:42:57.187Z,97693.13
2023-04-28T05:45:24.341Z,97722.41
2023-04-28T05:47:51.435Z,97728.91
2023-04-28T05:50:18.949Z,97740.28
2023-04-28T05:52:46.045Z,97666.63
2023-04-28T05:55:13.355Z,97740.03
2023-04-28T05:57:51.818Z,97714.81
2023-04-28T06:00:21.137Z,97721.41
2023-04-28T06:02:49.495Z,97690.25
2023-04-28T06:05:17.875Z,97726.63
2023-04-28T06:07:48.272Z,97678.22
2023-04-28T06:10:17.144Z,97701.59
2023-04-28T06:12:44.871Z,97735.50
2023-04-28T06:15:11.697Z,97743.97
2023-04-28T06:17:39.775Z,97736.91
2023-04-28T06:20:10.921Z,97718.94
2023-04-28T06:22:38.183Z,97690.25
2023-04-28T06:25:06.548Z,97731.78
2023-04-28T06:27:38.991Z,97706.78
2023-04-28T06:30:09.435Z,97702.03
2023-04-28T06:32:36.600Z,97710.63
2023-04-28T06:35:03.276Z,97763.75
2023-04-28T06:37:30.151Z,97744.97
2023-04-28T06:39:58.510Z,97729.81
2023-04-28T06:42:28.186Z,97729.81
2023-04-28T06:45:07.357Z,97671.03
2023-04-28T06:47:37.764Z,97744.16
2023-04-28T06:50:10.049Z,97687.06
2023-04-28T06:52:39.857Z,97749.19
2023-04-28T06:55:10.303Z,97752.91
2023-04-28T06:57:38.108Z,97727.38
2023-04-28T07:00:06.038Z,97705.59
2023-04-28T07:02:32.822Z,97761.03
2023-04-28T07:04:59.793Z,97685.28
2023-04-28T07:07:27.279Z,97681.75
2023-04-28T07:09:54.209Z,97698.25
2023-04-28T07:12:22.491Z,97754.19
2023-04-28T07:14:50.634Z,97749.69
2023-04-28T07:17:17.334Z,97761.25
2023-04-28T07:19:43.812Z,97731.03
2023-04-28T07:22:10.615Z,97762.63
2023-04-28T07:24:37.504Z,97747.81
2023-04-28T07:27:03.993Z,97735.84
2023-04-28T07:29:36.366Z,97675.19
2023-04-28T07:32:06.824Z,97769.94
2023-04-28T07:34:36.491Z,97722.25
2023-04-28T07:37:04.242Z,97628.19
2023-04-28T07:39:33.990Z,97765.03
2023-04-28T07:42:03.960Z,97745.00
2023-04-28T07:44:31.617Z,97722.28
2023-04-28T07:46:59.805Z,97582.00
2023-04-28T07:49:29.931Z,97753.44
2023-04-28T07:51:58.478Z,97742.94
2023-04-28T07:54:25.778Z,97684.66
2023-04-28T07:56:52.444Z,97617.03
2023-04-28T07:59:19.620Z,97733.19
2023-04-28T08:01:46.699Z,97691.75
2023-04-28T08:04:13.524Z,97649.44
2023-04-28T08:06:42.107Z,97698.03
2023-04-28T08:09:09.161Z,97669.13
2023-04-28T08:11:40.505Z,97643.88
2023-04-28T08:14:09.294Z,97693.31
2023-04-28T08:16:39.473Z,97673.75
2023-04-28T08:19:06.459Z,97681.47
2023-04-28T08:21:34.116Z,97666.22
2023-04-28T08:24:03.255Z,97719.47
2023-04-28T08:26:30.096Z,97729.75
2023-04-28T08:28:57.250Z,97728.78
2023-04-28T08:31:26.245Z,97676.53
2023-04-28T08:33:54.335Z,97733.25
2023-04-28T08:36:31.830Z,97590.94
2023-04-28T08:38:59.568Z,97721.88
2023-04-28T08:41:30.018Z,97696.53
2023-04-28T08:43:56.841Z,97667.69
2023-04-28T08:46:24.931Z,97725.81
2023-04-28T08:48:53.636Z,97706.41
2023-04-28T08:51:33.955Z,97729.63
2023-04-28T08:54:29.019Z,97677.91
2023-04-28T08:56:53.223Z,97668.50
2023-04-28T08:59:20.834Z,97706.59
2023-04-28T09:01:49.835Z,97738.31
2023-04-28T09:04:19.121Z,97690.41
2023-04-28T09:06:47.781Z,97718.16
2023-04-28T09:09:34.218Z,97746.75
2023-04-28T09:12:05.356Z,97721.44
2023-04-28T09:14:35.670Z,97717.66
2023-04-28T09:17:09.611Z,97744.31
2023-04-28T09:19:38.219Z,97738.53
2023-04-28T09:22:21.823Z,97738.56
2023-04-28T09:24:56.418Z,97741.78
2023-04-28T09:27:30.361Z,97746.44
2023-04-28T09:29:58.028Z,97682.34
2023-04-28T09:32:27.979Z,97752.09
2023-04-28T09:34:57.184Z,97753.19
2023-04-28T09:37:27.163Z,97732.22
2023-04-28T09:39:55.572Z,97744.41
2023-04-28T09:42:42.244Z,97736.78
2023-04-28T09:45:12.545Z,97726.34
2023-04-28T09:47:41.960Z,97727.44
2023-04-28T09:50:12.803Z,97748.44
2023-04-28T09:52:48.778Z,97764.59
2023-04-28T09:55:18.660Z,97763.88
2023-04-28T09:57:49.418Z,97701.44
2023-04-28T10:00:20.126Z,97769.53
2023-04-28T10:02:51.750Z,97769.50
2023-04-28T10:05:22.137Z,97691.97
2023-04-28T10:07:49.800Z,97767.91
2023-04-28T10:10:21.551Z,97742.84
2023-04-28T10:12:49.020Z,97686.09
2023-04-28T10:15:16.743Z,97728.00
2023-04-28T10:17:43.803Z,97762.53
2023-04-28T10:20:11.462Z,97735.31
2023-04-28T10:22:47.239Z,97759.38
2023-04-28T10:25:35.697Z,97750.28
2023-04-28T10:28:11.505Z,97754.63
2023-04-28T10:30:38.195Z,97635.13
2023-04-28T10:33:15.137Z,97767.81
2023-04-28T10:35:47.538Z,97757.91
2023-04-28T10:38:19.281Z,97696.00
2023-04-28T10:40:52.864Z,97767.63
2023-04-28T10:43:26.381Z,97764.69
2023-04-28T10:45:56.495Z,97771.94
2023-04-28T10:48:46.478Z,97768.72
2023-04-28T10:51:24.727Z,97772.22
2023-04-28T10:53:52.386Z,97764.72
2023-04-28T10:56:28.700Z,97766.06
2023-04-28T10:58:58.576Z,97748.88
2023-04-28T11:01:35.303Z,97755.88
2023-04-28T11:04:17.274Z,97736.44
2023-04-28T11:07:06.050Z,97753.97
2023-04-28T11:09:32.744Z,97752.66
2023-04-28T11:12:07.266Z,97755.34
2023-04-28T11:14:42.195Z,97755.84
2023-04-28T11:17:13.453Z,97739.75
2023-04-28T11:19:43.791Z,97696.22
2023-04-28T11:22:22.105Z,97742.53
2023-04-28T11:25:00.419Z,97719.41
2023-04-28T11:27:28.591Z,97711.91
2023-04-28T11:29:55.718Z,97697.38
2023-04-28T11:32:33.917Z,97712.44
2023-04-28T11:35:01.383Z,97644.13
2023-04-28T11:37:28.315Z,97724.00
2023-04-28T11:39:56.210Z,97690.94
2023-04-28T11:42:22.850Z,97716.19
2023-04-28T11:44:52.822Z,97744.16
2023-04-28T11:47:33.861Z,97745.50
2023-04-28T11:50:02.236Z,97699.47
2023-04-28T11:52:30.137Z,97758.13
2023-04-28T11:55:00.493Z,97692.50
2023-04-28T11:57:27.946Z,97669.41
2023-04-28T12:00:22.330Z,97741.47
2023-04-28T12:02:50.811Z,97754.09
2023-04-28T12:05:22.703Z,97722.06
2023-04-28T12:07:51.889Z,97687.97
2023-04-28T12:10:19.884Z,97748.97
2023-04-28T12:12:52.802Z,97706.50
2023-04-28T12:15:22.857Z,97759.19
2023-04-28T12:17:51.560Z,97649.00
2023-04-28T12:20:39.801Z,97761.88
2023-04-28T12:23:08.812Z,97757.03
2023-04-28T12:25:45.059Z,97752.19
2023-04-28T12:28:12.401Z,97715.84
2023-04-28T12:30:42.798Z,97721.19
2023-04-28T12:33:26.496Z,97723.19
2023-04-28T12:35:57.381Z,97745.09
2023-04-28T12:38:28.031Z,97663.38
2023-04-28T12:40:58.639Z,97737.69
2023-04-28T12:43:29.377Z,97717.19
2023-04-28T12:45:57.316Z,97729.53
2023-04-28T12:48:25.724Z,97731.63
2023-04-28T12:51:01.452Z,97699.84
2023-04-28T12:53:29.757Z,97715.19
2023-04-28T12:55:57.767Z,97724.16
2023-04-28T12:58:24.544Z,97732.69
2023-04-28T13:00:51.399Z,97713.91
2023-04-28T13:03:20.367Z,97713.50
2023-04-28T13:05:48.530Z,97607.81
2023-04-28T13:08:19.330Z,97718.97
2023-04-28T13:10:47.252Z,97647.31
2023-04-28T13:13:16.948Z,97689.59
2023-04-28T13:15:49.862Z,97719.53
2023-04-28T13:18:16.916Z,97709.97
2023-04-28T13:20:46.757Z,97663.59
2023-04-28T13:23:14.404Z,97650.00
2023-04-28T13:25:41.443Z,97684.25
2023-04-28T13:28:08.192Z,97690.00
2023-04-28T13:30:34.993Z,97681.53
2023-04-28T13:33:03.693Z,97668.09
2023-04-28T13:35:30.552Z,97688.19
2023-04-28T13:38:02.021Z,97667.25
2023-04-28T13:40:28.940Z,97616.66
2023-04-28T13:42:55.872Z,97639.41
2023-04-28T13:45:22.958Z,97668.25
2023-04-28T13:47:51.311Z,97584.59
2023-04-28T13:50:18.358Z,97676.88
2023-04-28T13:52:46.319Z,97632.16
2023-04-28T13:55:13.620Z,97684.53
2023-04-28T13:57:40.672Z,97684.63
2023-04-28T14:00:08.278Z,97644.16
2023-04-28T14:02:36.563Z,97663.59
2023-04-28T14:05:03.577Z,97674.38
2023-04-28T14:07:30.142Z,97654.16
2023-04-28T14:09:57.160Z,97671.03
2023-04-28T14:12:24.203Z,97671.28
2023-04-28T14:14:50.695Z,97672.84
2023-04-28T14:17:17.925Z,97684.53
2023-04-28T14:19:45.612Z,97696.34
2023-04-28T14:22:13.840Z,97689.91
2023-04-28T14:24:42.885Z,97669.53
2023-04-28T14:27:09.821Z,97665.78
2023-04-28T14:29:36.575Z,97672.22
2023-04-28T14:32:04.037Z,97660.97
2023-04-28T14:34:32.127Z,97648.19
2023-04-28T14:36:58.794Z,97695.97
2023-04-28T14:39:26.204Z,97690.91
2023-04-28T14:41:54.292Z,97694.72
2023-04-28T14:44:21.031Z,97650.69
2023-04-28T14:46:48.642Z,97655.56
2023-04-28T14:49:15.346Z,97624.75
2023-04-28T14:51:41.875Z,97669.63
2023-04-28T14:54:09.671Z,97681.97
2023-04-28T14:56:36.457Z,97579.63
2023-04-28T14:59:03.951Z,97679.50
2023-04-28T15:01:31.566Z,97674.38
2023-04-28T15:03:58.705Z,97614.41
2023-04-28T15:06:25.535Z,97665.19
2023-04-28T15:08:52.747Z,97652.50
2023-04-28T15:11:19.487Z,97638.56
2023-04-28T15:13:46.160Z,97652.75
2023-04-28T15:16:12.974Z,97629.47
2023-04-28T15:18:39.807Z,97643.31
2023-04-28T15:21:07.194Z,97678.81
2023-04-28T15:23:33.759Z,97683.16
2023-04-28T15:26:00.537Z,97519.94
2023-04-28T15:28:28.129Z,97648.88
2023-04-28T15:30:54.988Z,97625.16
2023-04-28T15:33:21.845Z,97650.38
2023-04-28T15:35:48.753Z,97653.06
2023-04-28T15:38:15.319Z,97635.28
2023-04-28T15:40:42.646Z,97656.13
2023-04-28T15:43:09.834Z,97614.25
2023-04-28T15:45:37.726Z,97510.88
2023-04-28T15:48:06.788Z,97647.66
2023-04-28T15:50:33.943Z,97617.56
2023-04-28T15:53:00.518Z,97645.72
2023-04-28T15:55:28.619Z,97608.16
2023-04-28T15:57:56.138Z,97643.53
2023-04-28T16:00:23.610Z,97571.81
2023-04-28T16:02:53.879Z,97636.19
2023-04-28T16:05:20.968Z,97624.34
2023-04-28T16:07:47.509Z,97635.81
2023-04-28T16:10:16.659Z,97639.31
2023-04-28T16:12:43.340Z,97489.19
2023-04-28T16:15:12.458Z,97610.44
2023-04-28T16:17:40.004Z,97643.53
2023-04-28T16:20:09.999Z,97632.75
2023-04-28T16:22:38.403Z,97649.41
2023-04-28T16:25:06.739Z,97627.44
2023-04-28T16:27:33.914Z,97527.16
2023-04-28T16:30:02.685Z,97638.47
2023-04-28T16:32:29.556Z,97648.16
2023-04-28T16:35:00.151Z,97620.47
2023-04-28T16:37:27.720Z,97540.03
2023-04-28T16:39:56.647Z,97562.84
2023-04-28T16:42:23.448Z,97614.81
2023-04-28T16:44:52.703Z,97645.72
2023-04-28T16:47:27.662Z,97638.44
2023-04-28T16:49:54.572Z,97520.16
2023-04-28T16:52:21.336Z,97627.22
2023-04-28T16:54:48.221Z,97655.38
2023-04-28T16:57:15.934Z,97525.00
2023-04-28T16:59:43.015Z,97615.47
2023-04-28T17:02:10.649Z,97632.94
2023-04-28T17:04:37.847Z,97539.53
2023-04-28T17:07:05.588Z,97603.38
2023-04-28T17:09:33.270Z,97636.63
2023-04-28T17:12:00.869Z,97617.66
2023-04-28T17:14:27.690Z,97582.50
2023-04-28T17:16:56.588Z,97646.88
2023-04-28T17:19:23.397Z,97645.28
2023-04-28T17:21:52.346Z,97631.91
2023-04-28T17:24:23.739Z,97660.84
2023-04-28T17:26:55.384Z,97649.13
2023-04-28T17:29:23.908Z,97647.00
2023-04-28T17:31:53.048Z,97591.47
2023-04-28T17:34:20.077Z,97585.28
2023-04-28T17:36:47.009Z,97660.72
2023-04-28T17:39:15.553Z,97639.75
2023-04-28T17:41:43.662Z,97642.97
2023-04-28T17:44:13.383Z,97642.16
2023-04-28T17:46:41.289Z,97617.75
2023-04-28T17:49:08.114Z,97651.03
2023-04-28T17:51:34.727Z,97618.88
2023-04-28T17:54:01.298Z,97648.13
2023-04-28T17:56:28.649Z,97652.72
2023-04-28T17:58:56.955Z,97592.34
2023-04-28T18:01:23.924Z,97618.69
2023-04-28T18:03:52.106Z,97657.34
2023-04-28T18:06:22.270Z,97617.63
2023-04-28T18:08:49.558Z,97655.22
2023-04-28T18:11:19.443Z,97649.88
2023-04-28T18:13:46.198Z,97662.53
2023-04-28T18:16:15.640Z,97646.16
2023-04-28T18:18:42.275Z,97660.69
2023-04-28T18:21:10.305Z,97595.44
2023-04-28T18:23:39.633Z,97620.16
2023-04-28T18:26:06.182Z,97677.91
2023-04-28T18:28:33.898Z,97658.31
2023-04-28T18:34:52.433Z,97583.44
2023-04-28T18:37:19.343Z,97635.81
2023-04-28T18:39:57.813Z,97701.63
2023-04-28T18:42:27.538Z,97589.88
2023-04-28T18:45:02.414Z,97619.41
2023-04-28T18:47:29.827Z,97655.16
2023-04-28T18:49:58.342Z,97694.94
2023-04-28T18:52:25.148Z,97633.97
2023-04-28T18:54:57.028Z,97700.06
2023-04-28T18:57:24.326Z,97689.31
2023-04-28T18:59:51.105Z,97710.81
2023-04-28T19:02:19.617Z,97717.28
2023-04-28T19:04:52.120Z,97682.34
2023-04-28T19:07:18.977Z,97707.59
2023-04-28T19:09:45.983Z,97673.19
2023-04-28T19:12:15.656Z,97617.78
2023-04-28T19:14:46.205Z,97709.75
2023-04-28T19:17:14.900Z,97645.19
2023-04-28T19:19:43.889Z,97575.03
2023-04-28T19:22:30.203Z,97730.16
2023-04-28T19:25:06.660Z,97723.97
2023-04-28T19:27:37.011Z,97750.31
2023-04-28T19:30:08.088Z,97758.09
2023-04-28T19:32:36.995Z,97754.28
2023-04-28T19:35:07.292Z,97673.84
2023-04-28T19:37:36.573Z,97759.91
2023-04-28T19:40:07.407Z,97743.47
2023-04-28T19:42:35.321Z,97744.03
2023-04-28T19:45:02.109Z,97724.38
2023-04-28T19:47:34.092Z,97782.72
2023-04-28T19:50:01.511Z,97677.25
2023-04-28T19:52:30.292Z,97778.69
2023-04-28T19:54:57.592Z,97754.16
2023-04-28T19:57:24.249Z,97695.50
2023-04-28T19:59:51.817Z,97782.94
2023-04-28T20:02:19.292Z,97714.13
2023-04-28T20:04:46.488Z,97771.25
2023-04-28T20:07:16.855Z,97790.34
2023-04-28T20:09:44.453Z,97768.56
2023-04-28T20:12:11.730Z,97773.91
2023-04-28T20:14:38.325Z,97736.75
2023-04-28T20:17:07.598Z,97783.31
2023-04-28T20:19:37.165Z,97794.06
2023-04-28T20:22:08.226Z,97799.41
2023-04-28T20:24:35.424Z,97729.91
2023-04-28T20:27:03.259Z,97773.50
2023-04-28T20:29:31.714Z,97794.66
2023-04-28T20:31:59.422Z,97802.09
2023-04-28T20:34:28.886Z,97797.72
2023-04-28T20:37:03.138Z,97799.56
2023-04-28T20:39:31.370Z,97763.78
2023-04-28T20:41:59.434Z,97770.50
2023-04-28T20:44:26.432Z,97766.94
2023-04-28T20:46:58.578Z,97758.56
2023-04-28T20:49:28.688Z,97785.34
2023-04-28T20:52:02.691Z,97782.81
2023-04-28T20:54:32.958Z,97786.72
2023-04-28T20:57:00.802Z,97785.59
2023-04-28T20:59:33.551Z,97795.19
2023-04-28T21:02:01.690Z,97785.94
2023-04-28T21:04:28.672Z,97725.22
2023-04-28T21:06:55.813Z,97765.75
2023-04-28T21:09:25.575Z,97746.09
2023-04-28T21:11:52.478Z,97785.59
2023-04-28T21:14:19.101Z,97773.25
2023-04-28T21:16:45.742Z,97793.22
2023-04-28T21:19:12.439Z,97805.97
2023-04-28T21:21:42.550Z,97818.81
2023-04-28T21:24:12.520Z,97810.34
2023-04-28T21:26:42.285Z,97802.63
2023-04-28T21:29:10.940Z,97782.63
2023-04-28T21:31:38.095Z,97718.41
2023-04-28T21:34:04.817Z,97797.78
2023-04-28T21:36:32.828Z,97820.28
2023-04-28T21:39:03.139Z,97790.19
2023-04-28T21:41:30.064Z,97821.19
2023-04-28T21:43:57.141Z,97830.63
2023-04-28T21:46:24.271Z,97827.31
2023-04-28T21:48:51.159Z,97811.63
2023-04-28T21:51:19.198Z,97825.06
2023-04-28T21:53:45.786Z,97766.25
2023-04-28T21:56:12.239Z,97817.41
2023-04-28T21:58:41.751Z,97828.09
2023-04-28T22:01:09.648Z,97810.38
2023-04-28T22:03:37.952Z,97782.28
2023-04-28T22:06:04.851Z,97760.66
2023-04-28T22:08:31.938Z,97797.19
2023-04-28T22:10:59.021Z,97818.50
2023-04-28T22:13:26.825Z,97821.19
2023-04-28T22:15:53.652Z,97838.22
2023-04-28T22:18:22.417Z,97844.50
2023-04-28T22:20:50.472Z,97754.34
2023-04-28T22:23:18.007Z,97796.06
2023-04-28T22:25:45.105Z,97798.28
2023-04-28T22:28:11.691Z,97838.59
2023-04-28T22:30:38.206Z,97848.66
2023-04-28T22:33:05.196Z,97832.25
2023-04-28T22:35:32.880Z,97833.78
2023-04-28T22:37:59.773Z,97816.44
2023-04-28T22:40:26.523Z,97793.59
2023-04-28T22:42:54.739Z,97766.53
2023-04-28T22:45:21.204Z,97749.94
2023-04-28T22:47:47.706Z,97864.66
2023-04-28T22:50:14.253Z,97870.56
2023-04-28T22:52:41.043Z,97817.09
2023-04-28T22:55:08.594Z,97836.44
2023-04-28T22:57:35.201Z,97848.38
2023-04-28T23:00:02.400Z,97871.03
2023-04-28T23:02:29.282Z,97813.03
2023-04-28T23:04:57.406Z,97831.56
2023-04-28T23:07:25.701Z,97834.59
2023-04-28T23:09:52.776Z,97790.84
2023-04-28T23:12:19.773Z,97814.66
2023-04-28T23:14:46.369Z,97855.47
2023-04-28T23:17:13.161Z,97836.34
2023-04-28T23:19:39.860Z,97787.88
2023-04-28T23:22:10.943Z,97867.16
2023-04-28T23:24:40.248Z,97864.78
2023-04-28T23:27:06.970Z,97825.63
2023-04-28T23:29:35.988Z,97804.81
2023-04-28T23:32:03.245Z,97844.34
2023-04-28T23:34:31.749Z,97859.81
2023-04-28T23:36:59.952Z,97832.75
2023-04-28T23:39:29.774Z,97875.19
2023-04-28T23:41:59.047Z,97831.88
2023-04-28T23:44:25.952Z,97879.09
2023-04-28T23:46:54.241Z,97795.38
2023-04-28T23:49:23.770Z,97827.09
2023-04-28T23:51:50.794Z,97857.88
2023-04-28T23:54:17.299Z,97786.06
2023-04-28T23:56:44.277Z,97851.63
2023-04-28T23:59:11.028Z,97871.19
